Time;durP1;ratioP1;P1;durP2;ratioP2;P2;SDS_P1;SDS_P2;PMS_P1;PMS_P2;Temp;Humidity;BMP_temperature;BMP_pressure;BME280_temperature;BME280_humidity;BME280_pressure;Samples;Min_cycle;Max_cycle;Signal;HPM_P1;HPM_P2
2021/07/26 02:45:37;;;;;;;9.27;6.95;;;20.50;99.30;;;;;;5761664;24;21010;31
2021/07/26 02:48:03;;;;;;;13.70;7.93;;;20.40;99.30;;;;;;4759467;30;20064;-74
2021/07/26 02:50:30;;;;;;;11.32;7.50;;;20.40;99.40;;;;;;4747066;30;20041;-74
2021/07/26 02:52:59;;;;;;;15.80;8.43;;;20.50;99.40;;;;;;4743013;30;20060;-74
2021/07/26 02:55:27;;;;;;;10.88;8.30;;;20.40;99.30;;;;;;4743065;30;20207;-75
2021/07/26 02:57:53;;;;;;;11.55;7.45;;;20.40;99.40;;;;;;4744546;30;20086;-75
2021/07/26 03:00:20;;;;;;;11.70;8.02;;;20.40;99.30;;;;;;4744402;30;20099;-75
2021/07/26 03:02:45;;;;;;;11.27;8.25;;;20.40;99.20;;;;;;4744407;30;20028;-75
2021/07/26 03:05:11;;;;;;;12.32;7.70;;;20.40;99.10;;;;;;4743702;30;20024;-74
2021/07/26 03:07:37;;;;;;;9.10;7.70;;;20.40;99.00;;;;;;4744215;30;20103;-74
2021/07/26 03:10:03;;;;;;;11.32;7.60;;;20.40;99.00;;;;;;4744317;30;20039;-74
2021/07/26 03:12:28;;;;;;;12.57;7.90;;;20.40;99.00;;;;;;4744297;30;20029;-74
2021/07/26 03:14:54;;;;;;;8.80;7.47;;;20.30;99.00;;;;;;4744405;30;20035;-74
2021/07/26 03:17:24;;;;;;;16.95;8.68;;;20.30;99.10;;;;;;4744012;30;20064;-75
2021/07/26 03:19:54;;;;;;;10.38;8.30;;;20.30;99.20;;;;;;4744350;30;20032;-75
2021/07/26 03:22:52;;;;;;;12.57;8.20;;;20.30;99.60;;;;;;4731291;30;20029;-75
2021/07/26 03:25:18;;;;;;;9.77;8.13;;;20.30;99.20;;;;;;4740295;30;20209;-75
2021/07/26 03:27:44;;;;;;;14.98;8.35;;;20.20;99.20;;;;;;4749061;30;20030;-75
2021/07/26 03:30:11;;;;;;;15.57;9.32;;;20.30;99.10;;;;;;4742418;30;20345;-75
2021/07/26 03:32:36;;;;;;;10.93;8.60;;;20.30;99.10;;;;;;4743957;30;20259;-75
2021/07/26 03:35:04;;;;;;;10.35;7.90;;;20.30;99.20;;;;;;4743134;30;20131;-75
2021/07/26 03:37:30;;;;;;;9.52;8.32;;;20.30;99.10;;;;;;4744063;30;20255;-75
2021/07/26 03:39:56;;;;;;;11.43;7.68;;;20.40;99.00;;;;;;4728021;30;20033;-75
2021/07/26 03:42:21;;;;;;;14.57;10.18;;;20.40;98.90;;;;;;4743798;30;20059;-75
2021/07/26 03:44:47;;;;;;;11.02;8.20;;;20.30;99.20;;;;;;4742757;30;20025;-75
2021/07/26 03:47:13;;;;;;;14.27;9.20;;;20.30;99.50;;;;;;4753932;30;20047;-75
2021/07/26 03:49:38;;;;;;;16.80;10.02;;;20.40;99.50;;;;;;4724803;30;20216;-75
2021/07/26 03:52:04;;;;;;;13.43;8.70;;;20.40;99.30;;;;;;4757721;30;20082;-74
2021/07/26 03:54:30;;;;;;;10.73;9.15;;;20.50;99.30;;;;;;4743930;30;20054;-75
2021/07/26 03:56:57;;;;;;;9.93;8.68;;;20.50;99.20;;;;;;4754627;30;20044;-75
2021/07/26 03:59:23;;;;;;;14.05;11.02;;;20.50;99.30;;;;;;4745956;30;20063;-75
2021/07/26 04:01:49;;;;;;;13.70;11.10;;;20.60;99.50;;;;;;4750319;30;20040;-75
2021/07/26 04:04:16;;;;;;;14.88;11.75;;;20.60;99.60;;;;;;4749934;30;20043;-75
2021/07/26 04:06:47;;;;;;;18.55;11.80;;;20.60;99.70;;;;;;4761358;30;20095;-75
2021/07/26 04:09:13;;;;;;;19.52;13.50;;;20.60;99.80;;;;;;4758593;30;20032;-75
2021/07/26 04:11:39;;;;;;;21.23;11.30;;;20.70;99.90;;;;;;4739945;30;20322;-75
2021/07/26 04:14:07;;;;;;;20.48;11.60;;;20.70;99.90;;;;;;4734293;30;20327;-74
2021/07/26 04:16:32;;;;;;;14.23;11.65;;;20.80;99.90;;;;;;4745456;30;20091;-75
2021/07/26 04:19:00;;;;;;;14.40;11.07;;;20.80;99.90;;;;;;4755457;30;20036;-75
2021/07/26 04:21:30;;;;;;;15.05;11.20;;;20.90;99.90;;;;;;4744034;30;20048;-76
2021/07/26 04:23:57;;;;;;;12.35;9.65;;;21.10;99.80;;;;;;4749003;30;20046;-75
2021/07/26 04:26:23;;;;;;;14.18;10.43;;;21.10;99.30;;;;;;4744033;30;20178;-75
2021/07/26 04:28:49;;;;;;;19.80;10.88;;;21.30;99.40;;;;;;4744548;30;20043;-75
2021/07/26 04:31:15;;;;;;;13.88;11.40;;;21.40;98.80;;;;;;4752141;30;20068;-74
2021/07/26 04:33:40;;;;;;;12.85;10.88;;;21.50;99.10;;;;;;4754093;30;20040;-75
2021/07/26 04:36:06;;;;;;;18.38;11.10;;;21.60;99.10;;;;;;4750039;30;20719;-75
2021/07/26 04:38:32;;;;;;;15.40;11.25;;;21.70;99.00;;;;;;4759067;30;20036;-75
2021/07/26 04:40:58;;;;;;;16.65;11.30;;;21.80;98.80;;;;;;4743078;30;20256;-75
2021/07/26 04:43:24;;;;;;;14.03;10.70;;;21.80;98.70;;;;;;4753287;30;20029;-75
2021/07/26 04:45:50;;;;;;;20.98;12.70;;;21.90;98.60;;;;;;4749454;30;20067;-74
2021/07/26 04:48:16;;;;;;;17.15;11.13;;;22.00;98.50;;;;;;4756263;30;20224;-75
2021/07/26 04:50:42;;;;;;;13.65;11.07;;;22.10;98.30;;;;;;4764070;30;20308;-74
2021/07/26 04:53:08;;;;;;;15.75;11.23;;;22.10;98.20;;;;;;4756830;30;20043;-75
2021/07/26 04:55:34;;;;;;;18.48;12.25;;;22.20;98.00;;;;;;4725154;30;20086;-75
2021/07/26 04:57:59;;;;;;;24.80;13.75;;;22.20;98.20;;;;;;4761088;30;20088;-75
2021/07/26 05:00:27;;;;;;;20.08;12.55;;;22.20;98.40;;;;;;4764217;30;20032;-76
2021/07/26 05:02:53;;;;;;;19.02;11.93;;;22.20;98.30;;;;;;4765699;30;20048;-79
2021/07/26 05:05:19;;;;;;;14.77;10.98;;;22.30;98.30;;;;;;4737898;30;20111;-77
2021/07/26 05:07:45;;;;;;;16.38;10.23;;;22.30;97.90;;;;;;4754603;30;20047;-77
2021/07/26 05:10:11;;;;;;;13.68;9.50;;;22.40;97.90;;;;;;4756936;30;20064;-77
2021/07/26 05:12:37;;;;;;;12.70;10.07;;;22.40;97.70;;;;;;4750559;30;20036;-77
2021/07/26 05:15:04;;;;;;;14.60;10.10;;;22.50;97.70;;;;;;4745819;30;20436;-77
2021/07/26 05:17:29;;;;;;;14.73;8.23;;;22.50;97.90;;;;;;4752233;30;20043;-77
2021/07/26 05:19:55;;;;;;;13.95;7.97;;;22.60;97.60;;;;;;4751313;30;20103;-77
2021/07/26 05:22:21;;;;;;;10.35;8.30;;;22.60;97.20;;;;;;4758879;30;20033;-77
2021/07/26 05:24:48;;;;;;;15.10;7.77;;;22.70;96.70;;;;;;4764393;30;20039;-77
2021/07/26 05:27:14;;;;;;;13.73;7.67;;;22.70;96.50;;;;;;4752917;30;20028;-77
2021/07/26 05:29:40;;;;;;;15.30;7.40;;;22.80;96.80;;;;;;4751916;30;20297;-77
2021/07/26 05:32:07;;;;;;;14.05;7.35;;;22.80;96.70;;;;;;4749760;30;20051;-77
2021/07/26 05:34:33;;;;;;;9.73;7.88;;;22.90;96.20;;;;;;4732053;30;20036;-77
2021/07/26 05:36:58;;;;;;;10.40;7.03;;;22.90;96.10;;;;;;4756003;30;20063;-77
2021/07/26 05:39:24;;;;;;;19.73;8.43;;;23.00;95.60;;;;;;4749072;30;20043;-78
2021/07/26 05:41:51;;;;;;;13.30;7.40;;;23.10;95.50;;;;;;4736457;30;20066;-78
2021/07/26 05:44:17;;;;;;;17.17;8.15;;;23.10;95.50;;;;;;4743606;30;20032;-78
2021/07/26 05:46:43;;;;;;;12.07;7.70;;;23.20;95.50;;;;;;4746286;30;20049;-77
2021/07/26 05:49:09;;;;;;;12.02;7.75;;;23.50;95.40;;;;;;4762833;30;20037;-78
2021/07/26 05:51:34;;;;;;;15.65;7.70;;;24.00;94.80;;;;;;4741308;30;20079;-78
2021/07/26 05:54:00;;;;;;;14.85;8.50;;;24.70;93.30;;;;;;4744925;30;20071;-78
2021/07/26 05:56:28;;;;;;;23.88;10.45;;;25.10;92.00;;;;;;4751128;30;20103;-78
2021/07/26 05:58:56;;;;;;;17.00;9.25;;;25.00;91.80;;;;;;4752071;30;20082;-78
2021/07/26 06:01:25;;;;;;;23.42;9.55;;;24.90;92.50;;;;;;4756196;30;20024;-78
2021/07/26 06:03:50;;;;;;;15.02;8.80;;;25.10;92.10;;;;;;4742801;30;20036;-80
2021/07/26 06:06:17;;;;;;;9.65;7.05;;;25.40;91.30;;;;;;4744734;30;20055;-79
2021/07/26 06:08:43;;;;;;;;;;;25.80;90.50;;;;;;4745301;30;20084;-77
2021/07/26 06:11:09;;;;;;;13.10;8.27;;;26.00;90.40;;;;;;4751136;30;20211;-80
2021/07/26 06:13:35;;;;;;;13.88;8.32;;;26.30;89.90;;;;;;4754439;30;20044;-80
2021/07/26 06:16:06;;;;;;;11.90;6.38;;;26.70;88.80;;;;;;4742758;30;20028;-80
2021/07/26 06:18:31;;;;;;;13.23;7.07;;;27.00;86.10;;;;;;4733463;30;20040;-80
2021/07/26 06:20:57;;;;;;;13.50;7.18;;;27.20;83.80;;;;;;4734992;30;20036;-80
2021/07/26 06:23:23;;;;;;;12.18;7.68;;;27.20;84.00;;;;;;4749252;30;20056;-80
2021/07/26 06:25:48;;;;;;;16.33;7.85;;;27.20;86.00;;;;;;4747064;30;20032;-80
2021/07/26 06:28:14;;;;;;;9.88;7.38;;;27.20;84.50;;;;;;4738548;30;20103;-77
2021/07/26 06:30:40;;;;;;;13.32;7.28;;;27.00;83.00;;;;;;4748261;30;20233;-79
2021/07/26 06:33:09;;;;;;;12.30;7.03;;;26.60;82.80;;;;;;4751996;30;20044;-79
2021/07/26 06:35:35;;;;;;;12.48;6.68;;;26.40;84.90;;;;;;4739574;30;20043;-79
2021/07/26 06:38:01;;;;;;;9.85;6.60;;;26.30;85.50;;;;;;4753021;30;20064;-79
2021/07/26 06:40:29;;;;;;;9.97;6.33;;;26.50;87.60;;;;;;4755259;30;20061;-79
2021/07/26 06:42:55;;;;;;;10.77;5.88;;;26.90;85.80;;;;;;4750877;30;20054;-78
2021/07/26 06:45:21;;;;;;;13.73;6.73;;;27.30;84.10;;;;;;4752191;30;20024;-78
2021/07/26 06:47:49;;;;;;;11.65;7.47;;;27.60;83.20;;;;;;4740961;30;20093;-78
2021/07/26 06:50:15;;;;;;;15.35;6.07;;;27.70;82.00;;;;;;4742583;30;20038;-78
2021/07/26 06:52:41;;;;;;;8.37;5.57;;;27.60;82.00;;;;;;4761715;30;20063;-78
2021/07/26 06:55:07;;;;;;;20.35;6.70;;;27.70;80.00;;;;;;4747237;30;20099;-78
2021/07/26 06:57:34;;;;;;;10.00;6.03;;;27.60;79.20;;;;;;4747921;30;20036;-78
2021/07/26 06:59:59;;;;;;;8.00;5.47;;;27.40;80.90;;;;;;4741671;30;20368;-73
2021/07/26 07:02:25;;;;;;;12.50;5.32;;;27.20;81.00;;;;;;4755278;30;20094;-72
2021/07/26 07:04:51;;;;;;;13.83;5.27;;;27.20;81.70;;;;;;4742696;30;20645;-73
2021/07/26 07:07:16;;;;;;;7.80;4.97;;;27.30;81.80;;;;;;4742804;30;20040;-73
2021/07/26 07:09:42;;;;;;;13.10;6.07;;;27.50;81.60;;;;;;4763098;30;20193;-73
2021/07/26 07:12:08;;;;;;;19.02;5.22;;;27.60;81.90;;;;;;4744943;30;20100;-72
2021/07/26 07:14:37;;;;;;;10.07;5.20;;;27.80;81.50;;;;;;4744356;30;20025;-72
2021/07/26 07:17:03;;;;;;;10.73;5.55;;;27.90;79.80;;;;;;4742475;30;20146;-72
2021/07/26 07:19:29;;;;;;;25.80;5.40;;;27.90;81.40;;;;;;4748588;30;20100;-76
2021/07/26 07:21:56;;;;;;;;;;;28.10;79.30;;;;;;4754306;30;20056;-74
2021/07/26 07:24:21;;;;;;;10.07;4.77;;;28.20;77.00;;;;;;4752761;30;19971;-75
2021/07/26 07:26:47;;;;;;;10.63;5.33;;;28.20;76.60;;;;;;4746565;30;20039;-74
2021/07/26 07:29:13;;;;;;;8.63;5.20;;;28.10;76.10;;;;;;4749111;30;20095;-74
2021/07/26 07:31:39;;;;;;;7.35;5.20;;;28.10;77.30;;;;;;4761362;30;20032;-74
2021/07/26 07:34:05;;;;;;;10.48;5.38;;;28.10;77.60;;;;;;4755495;30;20357;-74
2021/07/26 07:36:32;;;;;;;8.35;4.90;;;28.40;76.90;;;;;;4743090;30;20044;-74
2021/07/26 07:38:59;;;;;;;8.13;4.90;;;28.50;76.70;;;;;;4742920;30;20060;-75
2021/07/26 07:41:25;;;;;;;10.07;5.85;;;28.60;78.80;;;;;;4747769;30;20036;-77
2021/07/26 07:43:51;;;;;;;11.77;5.60;;;28.70;75.10;;;;;;4751428;30;20029;-77
2021/07/26 07:46:19;;;;;;;11.07;6.03;;;28.70;75.10;;;;;;4747091;30;20056;-76
2021/07/26 07:48:46;;;;;;;11.55;6.03;;;28.70;74.50;;;;;;4742114;30;20632;-77
2021/07/26 07:51:12;;;;;;;8.38;5.97;;;28.70;74.40;;;;;;4740350;30;20064;-77
2021/07/26 07:53:38;;;;;;;11.93;6.00;;;28.50;74.20;;;;;;4739411;30;20033;-77
2021/07/26 07:56:04;;;;;;;8.90;5.90;;;28.50;76.10;;;;;;4745998;30;20044;-76
2021/07/26 07:58:30;;;;;;;10.27;6.03;;;28.50;74.90;;;;;;4747229;30;20075;-76
2021/07/26 08:00:57;;;;;;;8.17;6.13;;;28.50;74.60;;;;;;4739872;30;20057;-77
2021/07/26 08:03:23;;;;;;;8.52;6.35;;;28.40;75.00;;;;;;4733966;30;20051;-77
2021/07/26 08:05:49;;;;;;;12.25;5.90;;;28.60;74.80;;;;;;4748328;30;20032;-77
2021/07/26 08:08:16;;;;;;;13.70;6.00;;;28.50;74.80;;;;;;4745680;30;20269;-77
2021/07/26 08:10:43;;;;;;;8.00;5.82;;;28.70;75.50;;;;;;4739405;30;20596;-77
2021/07/26 08:13:08;;;;;;;9.32;5.53;;;28.90;75.30;;;;;;4755797;30;20081;-77
2021/07/26 08:15:34;;;;;;;9.20;6.22;;;29.00;73.40;;;;;;4748379;30;20282;-77
2021/07/26 08:18:02;;;;;;;10.27;5.90;;;29.10;73.60;;;;;;4752169;30;20145;-77
2021/07/26 08:20:27;;;;;;;12.07;7.32;;;29.30;71.70;;;;;;4751287;30;20152;-77
2021/07/26 08:22:53;;;;;;;13.73;6.37;;;29.50;72.60;;;;;;4752679;30;20028;-77
2021/07/26 08:25:19;;;;;;;9.17;6.43;;;29.40;70.30;;;;;;4748577;30;20033;-77
2021/07/26 08:27:49;;;;;;;9.27;6.17;;;29.50;71.40;;;;;;4737827;30;20076;-77
2021/07/26 08:30:19;;;;;;;10.65;6.80;;;29.50;72.50;;;;;;4747227;30;20093;-77
2021/07/26 08:32:45;;;;;;;9.32;6.55;;;29.50;72.20;;;;;;4758058;30;20080;-76
2021/07/26 08:35:11;;;;;;;10.43;6.67;;;29.50;72.10;;;;;;4751851;30;20083;-76
2021/07/26 08:37:36;;;;;;;8.43;6.47;;;29.50;69.10;;;;;;4745457;30;20072;-77
2021/07/26 08:40:03;;;;;;;11.20;6.93;;;29.50;70.80;;;;;;4757763;30;20100;-77
2021/07/26 08:42:30;;;;;;;11.02;6.78;;;29.60;70.50;;;;;;4751204;30;20342;-76
2021/07/26 08:44:56;;;;;;;12.38;6.47;;;29.60;69.40;;;;;;4751465;30;20029;-77
2021/07/26 08:47:23;;;;;;;;;;;29.80;70.10;;;;;;4747566;30;20049;-77
2021/07/26 08:49:51;;;;;;;8.02;5.82;;;29.80;66.30;;;;;;4750070;30;20219;-76
2021/07/26 08:52:22;;;;;;;10.13;6.75;;;29.70;68.60;;;;;;4747396;30;20296;-77
2021/07/26 08:54:51;;;;;;;13.30;6.95;;;29.70;69.20;;;;;;4741167;30;20036;-77
2021/07/26 08:57:17;;;;;;;9.85;6.20;;;29.70;67.20;;;;;;4752145;30;20050;-77
2021/07/26 08:59:44;;;;;;;7.43;5.53;;;29.70;68.50;;;;;;4763370;30;20205;-77
2021/07/26 09:02:10;;;;;;;12.68;6.45;;;29.70;67.90;;;;;;4763219;30;20033;-76
2021/07/26 09:04:37;;;;;;;11.83;5.70;;;30.00;66.60;;;;;;4747995;30;20081;-76
2021/07/26 09:07:08;;;;;;;12.90;5.78;;;30.20;65.60;;;;;;4747916;30;20124;-77
2021/07/26 09:09:44;;;;;;;7.80;5.25;;;30.40;68.50;;;;;;4750302;30;20028;-76
2021/07/26 09:12:27;;;;;;;9.05;5.53;;;30.60;66.00;;;;;;4746168;30;20083;-76
2021/07/26 09:14:53;;;;;;;12.05;6.18;;;30.60;63.50;;;;;;4752151;30;20350;-78
2021/07/26 09:17:19;;;;;;;6.93;5.33;;;30.70;63.80;;;;;;4741150;30;20024;-76
2021/07/26 09:19:57;;;;;;;8.60;5.00;;;30.70;64.30;;;;;;4762930;30;20063;-76
2021/07/26 09:22:27;;;;;;;5.20;4.20;;;30.70;62.60;;;;;;4751523;30;20040;-76
2021/07/26 09:25:13;;;;;;;5.18;3.78;;;30.80;61.90;;;;;;4746024;30;20205;-76
2021/07/26 09:27:38;;;;;;;10.68;4.57;;;30.90;62.00;;;;;;4744798;30;20354;-76
2021/07/26 09:30:15;;;;;;;9.40;4.00;;;31.00;61.10;;;;;;4762863;30;20104;-76
2021/07/26 09:32:42;;;;;;;10.13;4.28;;;30.90;60.90;;;;;;4755059;30;20028;-77
2021/07/26 09:35:08;;;;;;;8.60;4.00;;;30.80;60.10;;;;;;4756586;30;20063;-79
2021/07/26 09:37:36;;;;;;;5.80;3.70;;;30.60;62.40;;;;;;4749513;30;20086;-77
2021/07/26 09:40:21;;;;;;;6.65;4.05;;;30.50;59.90;;;;;;4760060;30;20067;-77
2021/07/26 09:42:48;;;;;;;7.05;4.07;;;30.40;61.80;;;;;;4752951;30;20024;-77
2021/07/26 09:45:20;;;;;;;4.70;4.05;;;30.50;63.30;;;;;;4746771;30;20029;-77
2021/07/26 09:48:06;;;;;;;5.80;3.70;;;30.70;61.90;;;;;;4762344;30;20339;-77
2021/07/26 09:50:44;;;;;;;5.60;3.67;;;30.90;62.70;;;;;;4751383;30;20066;-77
2021/07/26 09:53:17;;;;;;;8.50;4.38;;;31.00;60.50;;;;;;4748277;30;20049;-77
2021/07/26 09:55:54;;;;;;;8.05;4.18;;;31.10;60.50;;;;;;4757125;30;20108;-77
2021/07/26 09:58:37;;;;;;;6.40;4.28;;;31.20;61.10;;;;;;4748164;30;20037;-78
2021/07/26 10:01:05;;;;;;;5.10;4.10;;;31.30;61.80;;;;;;4755077;30;20048;-77
2021/07/26 10:03:31;;;;;;;5.40;4.15;;;31.20;60.30;;;;;;4744631;30;20351;-77
2021/07/26 10:05:59;;;;;;;14.02;4.45;;;31.30;62.30;;;;;;4759560;30;20044;-77
2021/07/26 10:08:27;;;;;;;7.47;4.97;;;31.30;60.00;;;;;;4756593;30;20040;-77
2021/07/26 10:10:53;;;;;;;7.57;4.20;;;31.30;60.50;;;;;;4757437;30;20036;-77
2021/07/26 10:13:20;;;;;;;7.63;5.38;;;31.40;58.70;;;;;;4757334;30;20347;-77
2021/07/26 10:15:48;;;;;;;8.73;4.95;;;31.50;60.50;;;;;;4751194;30;20324;-77
2021/07/26 10:18:13;;;;;;;24.30;4.70;;;31.60;60.00;;;;;;4756060;30;20044;-77
2021/07/26 10:20:46;;;;;;;6.23;4.10;;;31.80;60.30;;;;;;4744492;30;20037;-77
2021/07/26 10:23:21;;;;;;;5.20;3.42;;;31.80;59.10;;;;;;4757114;30;20041;-78
2021/07/26 10:25:58;;;;;;;7.53;4.18;;;31.90;57.40;;;;;;4755670;30;20042;-77
2021/07/26 10:28:27;;;;;;;4.88;3.53;;;32.10;57.60;;;;;;4753750;30;20103;-77
2021/07/26 10:30:57;;;;;;;3.80;3.30;;;32.10;56.20;;;;;;4750302;30;20045;-77
2021/07/26 10:33:23;;;;;;;5.40;3.17;;;32.00;59.00;;;;;;4755885;30;20307;-77
2021/07/26 10:35:50;;;;;;;6.22;3.08;;;32.20;57.40;;;;;;4754231;30;20040;-77
2021/07/26 10:38:41;;;;;;;6.53;2.97;;;32.30;54.40;;;;;;4739155;30;20067;-78
2021/07/26 10:41:07;;;;;;;5.63;3.03;;;32.40;55.90;;;;;;4746045;30;20036;-78
2021/07/26 10:43:53;;;;;;;4.47;3.10;;;32.40;53.20;;;;;;4748442;30;20104;-78
2021/07/26 10:46:19;;;;;;;6.90;3.30;;;32.40;54.50;;;;;;4741112;30;20239;-78
2021/07/26 10:48:52;;;;;;;6.50;3.40;;;32.50;54.70;;;;;;4742527;30;20040;-78
2021/07/26 10:51:38;;;;;;;4.38;2.80;;;32.50;55.00;;;;;;4741519;30;20036;-77
2021/07/26 10:54:05;;;;;;;6.15;3.50;;;32.50;56.60;;;;;;4751165;30;20043;-77
2021/07/26 10:57:04;;;;;;;5.00;3.20;;;32.30;54.50;;;;;;4742138;30;20112;-77
2021/07/26 10:59:30;;;;;;;5.15;2.90;;;32.20;57.20;;;;;;4754148;30;20072;-78
2021/07/26 11:02:05;;;;;;;5.85;3.17;;;32.30;55.90;;;;;;4757718;30;20094;-77
2021/07/26 11:04:37;;;;;;;5.63;3.63;;;32.40;56.80;;;;;;4754420;30;20048;-77
2021/07/26 11:07:04;;;;;;;6.50;3.45;;;32.40;54.60;;;;;;4756032;30;20251;-79
2021/07/26 11:09:44;;;;;;;4.85;3.03;;;32.40;55.70;;;;;;4741966;30;20112;-78
2021/07/26 11:12:11;;;;;;;7.03;4.03;;;32.40;54.60;;;;;;4747889;30;20040;-78
2021/07/26 11:14:37;;;;;;;;;;;32.40;55.30;;;;;;4753487;30;20040;-77
2021/07/26 11:17:09;;;;;;;6.65;3.92;;;32.40;55.60;;;;;;4760633;30;19918;-77
2021/07/26 11:19:54;;;;;;;7.85;3.72;;;32.60;55.40;;;;;;4748834;30;20047;-78
2021/07/26 11:22:26;;;;;;;5.45;4.13;;;32.60;55.00;;;;;;4756088;30;20035;-77
2021/07/26 11:25:03;;;;;;;5.43;3.50;;;32.70;54.50;;;;;;4739303;30;20029;-77
2021/07/26 11:27:28;;;;;;;;;;;32.80;54.00;;;;;;4741976;30;20035;-77
2021/07/26 11:29:54;;;;;;;5.97;2.67;;;32.70;52.80;;;;;;4751926;30;19910;-77
2021/07/26 11:32:23;;;;;;;5.95;3.20;;;32.60;54.20;;;;;;4741644;30;20032;-77
2021/07/26 11:35:02;;;;;;;7.53;3.60;;;32.60;54.00;;;;;;4752664;30;20387;-77
2021/07/26 11:37:32;;;;;;;3.40;2.90;;;32.60;54.70;;;;;;4754569;30;20064;-77
2021/07/26 11:39:59;;;;;;;5.90;3.10;;;32.80;54.40;;;;;;4750180;30;20036;-76
2021/07/26 11:42:30;;;;;;;7.15;3.40;;;32.90;53.80;;;;;;4748971;30;20035;-77
2021/07/26 11:44:56;;;;;;;12.20;3.83;;;32.90;53.10;;;;;;4756194;30;20139;-76
2021/07/26 11:47:38;;;;;;;4.80;3.63;;;33.00;53.50;;;;;;4752592;30;20052;-77
2021/07/26 11:50:12;;;;;;;9.45;4.30;;;32.90;54.30;;;;;;4755414;30;20282;-77
2021/07/26 11:52:49;;;;;;;5.55;3.45;;;33.00;53.50;;;;;;4761168;30;20036;-78
2021/07/26 11:55:15;;;;;;;8.30;3.08;;;33.00;52.30;;;;;;4762892;30;20357;-77
2021/07/26 11:58:02;;;;;;;4.35;2.97;;;33.10;53.20;;;;;;4734985;30;20033;-77
2021/07/26 12:00:28;;;;;;;6.35;3.80;;;33.20;52.20;;;;;;4756304;30;20107;-77
2021/07/26 12:02:55;;;;;;;10.57;4.27;;;33.10;53.40;;;;;;4746705;30;20066;-76
2021/07/26 12:05:26;;;;;;;;;;;33.10;51.50;;;;;;4759608;30;20028;-77
2021/07/26 12:07:52;;;;;;;5.97;3.10;;;33.10;53.60;;;;;;4764825;30;19941;-77
2021/07/26 12:10:36;;;;;;;7.83;3.53;;;33.20;53.70;;;;;;4758245;30;20044;-77
2021/07/26 12:13:09;;;;;;;12.10;3.85;;;33.30;52.60;;;;;;4759368;30;20350;-76
2021/07/26 12:15:35;;;;;;;11.00;4.20;;;33.50;52.70;;;;;;4758039;30;20033;-77
2021/07/26 12:18:02;;;;;;;;;;;33.50;52.10;;;;;;4742068;30;20071;-78
2021/07/26 12:20:28;;;;;;;5.82;3.80;;;33.60;52.10;;;;;;4749592;30;19965;-76
2021/07/26 12:22:54;;;;;;;7.35;3.97;;;33.70;53.80;;;;;;4753777;30;20055;-76
2021/07/26 12:25:25;;;;;;;4.10;3.70;;;33.70;51.70;;;;;;4762940;30;20043;-76
2021/07/26 12:28:01;;;;;;;10.73;4.57;;;33.70;51.20;;;;;;4754901;30;20037;-77
2021/07/26 12:30:54;;;;;;;12.48;4.25;;;33.70;50.20;;;;;;4760785;30;20313;-76
2021/07/26 12:33:30;;;;;;;4.57;3.55;;;33.60;50.60;;;;;;4721658;30;20271;-77
2021/07/26 12:36:12;;;;;;;;;;;33.70;51.20;;;;;;4737820;30;20045;-77
2021/07/26 12:38:38;;;;;;;9.52;4.18;;;33.70;51.00;;;;;;4735702;30;19930;-77
2021/07/26 12:41:07;;;;;;;;;;;33.50;50.00;;;;;;4722327;30;20029;-77
2021/07/26 12:43:33;;;;;;;6.78;3.92;;;33.50;51.30;;;;;;4738133;30;20055;-76
2021/07/26 12:46:05;;;;;;;10.60;5.13;;;33.60;51.30;;;;;;4708641;30;20045;-75
2021/07/26 12:48:33;;;;;;;11.02;4.45;;;33.70;50.10;;;;;;4732237;30;20071;-76
2021/07/26 12:51:00;;;;;;;10.10;4.32;;;33.80;49.60;;;;;;4719980;30;20089;-76
2021/07/26 12:53:27;;;;;;;7.15;4.15;;;33.90;50.20;;;;;;4738352;30;20037;-75
2021/07/26 12:55:53;;;;;;;;;;;33.80;51.10;;;;;;4742597;30;20021;-76
2021/07/26 12:58:20;;;;;;;6.05;3.63;;;33.70;49.20;;;;;;4738028;30;20113;-75
2021/07/26 13:00:47;;;;;;;9.82;4.40;;;33.70;50.60;;;;;;4733244;30;20094;-76
2021/07/26 13:03:18;;;;;;;10.55;4.20;;;33.80;51.30;;;;;;4731902;30;20121;-76
2021/07/26 13:05:48;;;;;;;6.47;3.80;;;33.80;50.30;;;;;;4716240;30;20036;-76
2021/07/26 13:08:17;;;;;;;6.45;3.55;;;33.80;50.20;;;;;;4730419;30;20387;-76
2021/07/26 13:10:46;;;;;;;6.53;3.40;;;33.80;50.10;;;;;;4751711;30;20044;-75
2021/07/26 13:13:15;;;;;;;5.70;3.97;;;33.80;51.30;;;;;;4771433;30;20047;-75
2021/07/26 13:15:42;;;;;;;6.53;3.70;;;34.00;50.50;;;;;;4742263;30;20343;-76
2021/07/26 13:18:12;;;;;;;7.35;4.13;;;34.00;49.50;;;;;;4755057;30;20076;-75
2021/07/26 13:20:40;;;;;;;8.65;4.03;;;34.10;51.30;;;;;;4756085;30;20048;-75
2021/07/26 13:23:06;;;;;;;6.28;3.40;;;34.10;50.20;;;;;;4749289;30;20095;-76
2021/07/26 13:25:32;;;;;;;10.23;4.18;;;34.00;49.90;;;;;;4746047;30;20032;-76
2021/07/26 13:28:02;;;;;;;9.52;4.60;;;33.90;50.50;;;;;;4752139;30;20042;-76
2021/07/26 13:30:31;;;;;;;11.05;4.57;;;33.90;50.20;;;;;;4748871;30;20053;-76
2021/07/26 13:32:58;;;;;;;6.78;3.50;;;33.90;49.80;;;;;;4754755;30;20129;-75
2021/07/26 13:35:24;;;;;;;16.58;4.57;;;34.00;51.30;;;;;;4751706;30;20068;-75
2021/07/26 13:37:50;;;;;;;9.32;4.70;;;34.10;49.30;;;;;;4754211;30;20032;-76
2021/07/26 13:40:17;;;;;;;7.30;3.97;;;34.00;52.40;;;;;;4754197;30;20048;-75
2021/07/26 13:42:43;;;;;;;7.72;4.50;;;33.90;51.30;;;;;;4755406;30;20037;-77
2021/07/26 13:45:10;;;;;;;7.65;4.40;;;34.00;52.70;;;;;;4753833;30;20036;-76
2021/07/26 13:47:36;;;;;;;8.73;3.95;;;34.10;51.40;;;;;;4747303;30;20091;-76
2021/07/26 13:50:03;;;;;;;8.90;4.27;;;34.00;50.70;;;;;;4732413;30;20029;-78
2021/07/26 13:52:33;;;;;;;8.80;3.95;;;33.90;50.60;;;;;;4762628;30;20032;-77
2021/07/26 13:55:00;;;;;;;13.43;4.32;;;33.90;50.70;;;;;;4747526;30;20033;-77
2021/07/26 13:57:26;;;;;;;9.07;4.38;;;33.90;52.00;;;;;;4757273;30;20143;-77
2021/07/26 13:59:52;;;;;;;7.22;4.40;;;34.00;50.50;;;;;;4761964;30;20060;-77
2021/07/26 14:02:20;;;;;;;7.80;4.95;;;34.10;49.80;;;;;;4753601;30;20113;-76
2021/07/26 14:04:46;;;;;;;6.13;4.22;;;34.00;50.30;;;;;;4757758;30;20035;-77
2021/07/26 14:07:12;;;;;;;8.10;4.63;;;34.10;51.00;;;;;;4743831;30;20070;-77
2021/07/26 14:09:38;;;;;;;7.03;4.28;;;34.00;51.10;;;;;;4746066;30;20312;-76
2021/07/26 14:12:05;;;;;;;6.50;4.05;;;34.10;51.70;;;;;;4749399;30;20036;-76
2021/07/26 14:14:30;;;;;;;10.48;5.32;;;34.10;51.10;;;;;;4757153;30;20044;-77
2021/07/26 14:16:58;;;;;;;7.40;4.80;;;34.00;51.30;;;;;;4751738;30;20036;-77
2021/07/26 14:19:26;;;;;;;9.88;4.97;;;33.80;50.50;;;;;;4757460;30;20032;-77
2021/07/26 14:21:53;;;;;;;7.03;4.82;;;33.70;51.20;;;;;;4756509;30;20037;-76
2021/07/26 14:24:18;;;;;;;13.13;4.97;;;33.30;51.50;;;;;;4749505;30;20032;-76
2021/07/26 14:26:44;;;;;;;6.33;4.93;;;33.10;52.60;;;;;;4749603;30;20044;-76
2021/07/26 14:29:11;;;;;;;7.70;4.90;;;33.00;51.60;;;;;;4755423;30;20056;-77
2021/07/26 14:31:37;;;;;;;10.38;5.45;;;33.10;52.40;;;;;;4746460;30;20335;-77
2021/07/26 14:34:03;;;;;;;6.38;4.88;;;33.10;52.60;;;;;;4770397;30;20264;-77
2021/07/26 14:36:31;;;;;;;7.85;5.20;;;33.20;51.80;;;;;;4744040;30;20112;-77
2021/07/26 14:38:58;;;;;;;9.35;4.90;;;33.30;54.70;;;;;;4758587;30;20044;-77
2021/07/26 14:41:24;;;;;;;10.32;4.63;;;33.50;51.60;;;;;;4754444;30;20044;-77
2021/07/26 14:43:51;;;;;;;8.00;4.70;;;33.70;52.10;;;;;;4753223;30;20316;-77
2021/07/26 14:46:18;;;;;;;8.57;5.00;;;33.70;52.10;;;;;;4748750;30;20060;-77
2021/07/26 14:48:45;;;;;;;11.45;5.03;;;33.90;50.60;;;;;;4737505;30;20106;-78
2021/07/26 14:51:11;;;;;;;10.98;5.15;;;34.00;51.40;;;;;;4747165;30;20041;-78
2021/07/26 14:53:37;;;;;;;7.32;4.75;;;34.20;51.80;;;;;;4746087;30;20024;-77
2021/07/26 14:56:03;;;;;;;14.23;5.20;;;34.30;51.40;;;;;;4760507;30;20201;-77
2021/07/26 14:58:29;;;;;;;12.43;4.95;;;34.30;49.50;;;;;;4756534;30;20039;-77
2021/07/26 15:00:55;;;;;;;11.25;4.75;;;34.40;49.00;;;;;;4747407;30;20719;-77
2021/07/26 15:03:26;;;;;;;10.07;4.63;;;34.30;49.50;;;;;;4745870;30;20125;-77
2021/07/26 15:05:52;;;;;;;7.00;4.38;;;34.40;49.90;;;;;;4748180;30;20036;-77
2021/07/26 15:08:20;;;;;;;7.85;5.00;;;34.40;49.70;;;;;;4746556;30;20035;-77
2021/07/26 15:10:50;;;;;;;10.68;5.38;;;34.40;50.20;;;;;;4755924;30;20149;-78
2021/07/26 15:13:18;;;;;;;11.18;5.55;;;34.50;50.00;;;;;;4748793;30;20037;-77
2021/07/26 15:15:49;;;;;;;20.27;6.07;;;34.60;50.00;;;;;;4754541;30;20043;-76
2021/07/26 15:18:16;;;;;;;8.70;5.22;;;34.60;51.00;;;;;;4748412;30;20044;-77
2021/07/26 15:20:42;;;;;;;15.88;4.85;;;34.70;49.70;;;;;;4754288;30;20042;-77
2021/07/26 15:23:08;;;;;;;14.37;5.10;;;34.60;49.20;;;;;;4751911;30;20316;-77
2021/07/26 15:25:35;;;;;;;7.00;5.23;;;34.50;48.60;;;;;;4752563;30;20327;-78
2021/07/26 15:28:02;;;;;;;10.07;4.93;;;34.40;49.70;;;;;;4749984;30;20302;-77
2021/07/26 15:30:29;;;;;;;11.88;5.38;;;34.30;50.50;;;;;;4757099;30;20047;-77
2021/07/26 15:32:55;;;;;;;9.75;5.72;;;34.30;49.00;;;;;;4742854;30;20051;-77